Time;durP1;ratioP1;P1;durP2;ratioP2;P2;SDS_P1;SDS_P2;PMS_P1;PMS_P2;Temp;Humidity;BMP_temperature;BMP_pressure;BME280_temperature;BME280_humidity;BME280_pressure;Samples;Min_cycle;Max_cycle;Signal;HPM_P1;HPM_P2
2022/09/20 00:01:36;;;;;;;6.67;2.97;;;;;;;12.98;61.61;100057.47;124398;1099;102341;-75
2022/09/20 00:04:07;;;;;;;7.23;2.97;;;;;;;12.93;61.73;100066.19;124202;1102;104195;-75
2022/09/20 00:06:38;;;;;;;4.80;3.00;;;;;;;12.90;61.77;100081.94;124183;1102;104227;-75
2022/09/20 00:09:11;;;;;;;6.37;3.10;;;;;;;12.91;61.91;100094.22;124343;1099;104308;-75
2022/09/20 00:11:44;;;;;;;6.07;2.77;;;;;;;12.81;62.07;100081.75;124716;1099;104162;-76
2022/09/20 00:14:15;;;;;;;4.17;2.30;;;;;;;12.84;62.24;100086.16;124708;1098;104351;-75
2022/09/20 00:16:46;;;;;;;3.47;2.40;;;;;;;12.80;62.30;100079.09;124152;1099;102174;-76
2022/09/20 00:19:21;;;;;;;2.93;2.07;;;;;;;12.80;62.60;100084.35;124545;1099;104626;-75
2022/09/20 00:21:52;;;;;;;6.60;2.30;;;;;;;12.79;62.72;100090.47;124212;1102;104308;-75
2022/09/20 00:24:23;;;;;;;4.07;1.90;;;;;;;12.73;62.95;100099.11;124175;1099;104211;-75
2022/09/20 00:26:54;;;;;;;4.17;1.97;;;;;;;12.68;63.01;100095.51;124205;1102;104265;-77
2022/09/20 00:29:25;;;;;;;4.53;2.03;;;;;;;12.63;63.56;100099.80;124327;1099;104159;-77
2022/09/20 00:31:56;;;;;;;3.45;2.20;;;;;;;12.52;63.69;100105.71;124763;1098;104253;-77
2022/09/20 00:37:16;;;;;;;3.03;2.10;;;;;;;12.29;65.31;100099.94;124669;1099;104307;-76
2022/09/20 00:39:48;;;;;;;3.13;2.07;;;;;;;12.19;64.98;100100.61;124508;1099;104220;-77
2022/09/20 00:42:19;;;;;;;3.43;2.00;;;;;;;12.11;64.56;100092.55;124165;1102;102803;-76
2022/09/20 00:44:58;;;;;;;5.97;2.47;;;;;;;12.04;65.57;100087.98;124190;1099;104160;-76
2022/09/20 00:47:38;;;;;;;5.17;2.33;;;;;;;11.94;65.50;100086.02;124170;1102;103592;-77
2022/09/20 00:50:19;;;;;;;3.23;2.30;;;;;;;11.85;65.68;100079.62;124322;1099;102935;-76
2022/09/20 00:52:56;;;;;;;3.50;2.30;;;;;;;11.83;66.15;100080.47;124186;1099;102927;-76
2022/09/20 00:55:28;;;;;;;4.50;2.60;;;;;;;11.80;66.61;100085.64;124787;1099;104249;-76
2022/09/20 00:58:00;;;;;;;7.37;2.50;;;;;;;11.76;68.26;100079.41;124265;1099;104238;-76
2022/09/20 01:00:32;;;;;;;4.60;2.50;;;;;;;11.70;67.48;100081.88;124391;1099;102937;-76
2022/09/20 01:03:09;;;;;;;5.13;2.70;;;;;;;11.63;68.07;100078.23;124178;1099;104371;-76
2022/09/20 01:05:41;;;;;;;4.73;2.30;;;;;;;11.57;68.07;100085.08;124200;1101;104163;-76
2022/09/20 01:08:13;;;;;;;4.50;2.40;;;;;;;11.50;68.12;100084.92;124151;1099;102136;-76
2022/09/20 01:10:45;;;;;;;4.13;2.30;;;;;;;11.47;67.87;100082.22;124174;1099;104261;-75
2022/09/20 01:13:16;;;;;;;3.90;2.40;;;;;;;11.43;68.57;100072.47;124160;1098;104241;-75
2022/09/20 01:15:49;;;;;;;4.03;2.67;;;;;;;11.40;69.11;100079.39;124185;1099;104249;-75
2022/09/20 01:18:22;;;;;;;3.47;2.40;;;;;;;11.33;69.19;100078.36;124657;1099;104293;-75
2022/09/20 01:20:53;;;;;;;4.30;2.13;;;;;;;11.25;68.74;100079.88;124155;1099;102142;-75
2022/09/20 01:23:35;;;;;;;5.73;2.60;;;;;;;11.19;69.43;100074.45;124639;1099;104747;-76
2022/09/20 01:26:42;;;;;;;5.87;2.40;;;;;;;11.12;68.90;100070.79;124687;1099;104204;-76
2022/09/20 01:29:25;;;;;;;2.30;2.10;;;;;;;11.02;70.05;100056.54;124640;1099;104261;-76
2022/09/20 01:32:00;;;;;;;3.23;2.40;;;;;;;11.06;70.86;100068.88;124242;1102;104249;-75
2022/09/20 01:34:36;;;;;;;5.07;2.57;;;;;;;11.04;73.12;100060.08;124156;1099;104230;-75
2022/09/20 01:37:16;;;;;;;4.33;2.27;;;;;;;10.96;71.11;100048.50;124641;1099;102830;-76
2022/09/20 01:39:57;;;;;;;3.20;2.10;;;;;;;10.91;71.55;100044.88;124176;1099;104188;-75
2022/09/20 01:42:36;;;;;;;3.37;2.17;;;;;;;10.89;71.80;100060.58;124172;1098;104252;-75
2022/09/20 01:45:14;;;;;;;3.60;2.40;;;;;;;10.88;72.07;100078.91;124689;1099;103436;-76
2022/09/20 01:47:52;;;;;;;3.90;2.20;;;;;;;10.85;71.79;100078.83;124643;1099;104204;-76
2022/09/20 01:50:35;;;;;;;5.10;2.23;;;;;;;10.82;70.69;100068.23;124197;1102;104682;-75
2022/09/20 01:53:32;;;;;;;2.77;2.43;;;;;;;10.79;71.39;100061.16;124161;1099;117785;-75
2022/09/20 01:56:25;;;;;;;3.03;2.23;;;;;;;10.77;71.99;100066.36;124640;1099;104623;-75
2022/09/20 01:59:29;;;;;;;2.87;2.23;;;;;;;10.76;71.78;100066.32;124108;1099;102813;-75
2022/09/20 02:02:33;;;;;;;7.37;2.45;;;;;;;10.78;71.34;100065.53;124624;1099;104166;-76
2022/09/20 02:05:39;;;;;;;2.53;2.27;;;;;;;10.82;72.00;100057.73;124116;1099;104375;-77
2022/09/20 02:08:51;;;;;;;2.67;1.87;;;;;;;10.77;72.08;100044.49;124166;1099;101886;-76
2022/09/20 02:11:24;;;;;;;3.83;2.23;;;;;;;10.77;72.21;100050.62;124438;1099;104236;-76
2022/09/20 02:14:05;;;;;;;6.33;2.47;;;;;;;10.81;71.78;100053.33;124707;1099;102707;-76
2022/09/20 02:16:49;;;;;;;4.77;2.40;;;;;;;10.83;72.14;100049.91;124687;1098;104718;-76
2022/09/20 02:19:51;;;;;;;4.10;2.22;;;;;;;10.82;71.87;100052.48;124664;1099;102796;-76
2022/09/20 02:22:41;;;;;;;4.10;2.30;;;;;;;10.77;71.97;100047.12;124111;1099;102695;-77
2022/09/20 02:25:37;;;;;;;2.53;2.00;;;;;;;10.78;72.27;100052.41;124676;1099;104267;-77
2022/09/20 02:28:23;;;;;;;5.57;2.70;;;;;;;10.79;72.35;100048.91;124180;1099;104233;-75
2022/09/20 02:31:03;;;;;;;3.10;2.30;;;;;;;10.78;72.06;100049.78;124686;1099;104242;-76
2022/09/20 02:33:52;;;;;;;3.03;2.13;;;;;;;10.78;72.49;100055.03;124223;1099;104156;-77
2022/09/20 02:36:36;;;;;;;3.63;2.53;;;;;;;10.79;72.86;100058.53;124728;1099;104229;-76
2022/09/20 02:39:16;;;;;;;5.28;2.62;;;;;;;10.83;72.96;100054.25;124688;1099;104689;-76
2022/09/20 02:42:04;;;;;;;5.67;2.90;;;;;;;10.91;72.95;100047.50;124608;1099;104247;-77
2022/09/20 02:45:04;;;;;;;6.45;2.90;;;;;;;11.03;72.90;100044.29;124246;1099;104194;-77
2022/09/20 02:47:39;;;;;;;3.43;2.47;;;;;;;11.10;72.96;100043.61;124200;1099;104268;-77
2022/09/20 02:50:37;;;;;;;5.03;2.47;;;;;;;11.13;73.57;100048.95;124155;1099;104232;-76
2022/09/20 02:53:25;;;;;;;4.55;2.40;;;;;;;11.16;73.70;100049.03;124450;1099;102967;-77
2022/09/20 02:56:07;;;;;;;5.00;2.93;;;;;;;11.18;73.64;100046.44;124707;1099;104163;-77
2022/09/20 02:58:52;;;;;;;4.60;2.70;;;;;;;11.14;73.35;100042.83;124716;1099;101813;-77
2022/09/20 03:01:36;;;;;;;4.90;2.50;;;;;;;11.06;73.50;100026.87;124693;1099;104328;-77
2022/09/20 03:04:23;;;;;;;4.35;2.25;;;;;;;11.00;73.58;100031.98;124228;1099;104223;-77
2022/09/20 03:07:02;;;;;;;4.40;2.67;;;;;;;10.95;73.92;100025.70;124216;1099;104226;-77
2022/09/20 03:09:41;;;;;;;3.93;2.30;;;;;;;10.91;74.06;100026.50;124209;1099;104175;-77
2022/09/20 03:12:28;;;;;;;3.27;2.50;;;;;;;10.90;73.80;100024.70;124185;1099;104191;-77
2022/09/20 03:15:11;;;;;;;5.03;2.53;;;;;;;10.95;74.22;100020.45;124738;1099;104166;-76
2022/09/20 03:17:52;;;;;;;4.20;2.47;;;;;;;10.94;74.22;100016.08;124690;1098;103453;-77
2022/09/20 03:20:35;;;;;;;5.13;2.50;;;;;;;10.95;74.06;100013.49;124709;1099;104189;-77
2022/09/20 03:23:18;;;;;;;5.33;2.80;;;;;;;10.99;74.59;100022.33;124589;1098;104249;-77
2022/09/20 03:25:57;;;;;;;6.17;2.70;;;;;;;10.98;74.16;100025.79;124233;1101;104294;-77
2022/09/20 03:28:53;;;;;;;4.50;2.70;;;;;;;10.99;74.80;100018.83;124228;1099;102765;-77
2022/09/20 03:31:48;;;;;;;4.27;2.47;;;;;;;10.96;74.38;100020.50;124304;1099;104217;-77
2022/09/20 03:34:37;;;;;;;3.67;2.60;;;;;;;10.95;74.82;100013.49;124533;1099;104514;-77
2022/09/20 03:37:25;;;;;;;6.43;2.70;;;;;;;10.98;74.63;100017.91;124777;1098;104233;-76
2022/09/20 03:40:29;;;;;;;3.33;2.20;;;;;;;10.96;74.92;100022.25;124679;1099;104223;-77
2022/09/20 03:43:11;;;;;;;4.75;2.40;;;;;;;10.97;75.18;100021.41;124731;1099;104162;-77
2022/09/20 03:46:02;;;;;;;3.60;2.43;;;;;;;10.97;75.20;100026.66;124225;1099;117777;-76
2022/09/20 03:48:58;;;;;;;4.30;2.43;;;;;;;11.07;75.43;100033.91;124155;1099;104377;-77
2022/09/20 03:51:41;;;;;;;4.50;2.40;;;;;;;11.06;75.47;100029.49;124200;1099;104163;-77
2022/09/20 03:54:33;;;;;;;3.37;2.50;;;;;;;11.00;75.26;100037.24;124345;1099;104280;-77
2022/09/20 03:57:37;;;;;;;3.30;2.30;;;;;;;10.99;75.38;100038.08;124729;1099;104328;-76
2022/09/20 04:00:22;;;;;;;5.80;2.40;;;;;;;11.02;75.75;100040.78;124656;1097;103229;-77
2022/09/20 04:03:18;;;;;;;3.57;2.63;;;;;;;11.04;74.99;100046.95;124727;1099;102986;-76
2022/09/20 04:06:04;;;;;;;4.10;2.33;;;;;;;11.04;75.68;100039.08;124194;1099;104310;-77
2022/09/20 04:08:55;;;;;;;2.60;2.40;;;;;;;11.02;75.38;100039.91;124222;1099;104201;-77
2022/09/20 04:11:34;;;;;;;4.23;2.47;;;;;;;11.05;75.85;100038.24;124201;1099;104162;-77
2022/09/20 04:14:15;;;;;;;3.80;2.47;;;;;;;11.07;76.34;100044.41;124266;1099;101905;-77
2022/09/20 04:16:58;;;;;;;2.73;2.40;;;;;;;11.06;76.09;100047.00;124324;1099;102870;-79
2022/09/20 04:19:40;;;;;;;3.27;2.50;;;;;;;11.05;76.45;100058.37;125008;1099;104180;-78
2022/09/20 04:22:13;;;;;;;5.33;2.47;;;;;;;11.01;76.35;100060.00;124401;1099;104172;-78
2022/09/20 04:24:53;;;;;;;4.43;2.40;;;;;;;11.01;76.50;100073.12;124359;1099;104181;-78
2022/09/20 04:27:32;;;;;;;2.67;1.93;;;;;;;10.95;76.22;100083.46;124264;1099;102239;-77
2022/09/20 04:30:16;;;;;;;3.37;1.67;;;;;;;10.92;76.72;100083.38;124986;1099;104284;-77
2022/09/20 04:32:52;;;;;;;3.80;1.60;;;;;;;10.82;76.85;100079.61;124309;1099;104172;-78
2022/09/20 04:38:26;;;;;;;3.37;1.83;;;;;;;10.73;76.83;100080.23;124278;1099;104181;-77
2022/09/20 04:41:21;;;;;;;2.45;1.95;;;;;;;10.74;76.83;100075.90;124574;1099;104446;-79
2022/09/20 04:44:29;;;;;;;2.97;1.63;;;;;;;10.78;77.13;100078.66;124998;1099;101950;-77
2022/09/20 04:47:31;;;;;;;4.03;1.73;;;;;;;10.83;77.43;100081.41;124299;1099;104205;-77
2022/09/20 04:50:45;;;;;;;2.87;1.63;;;;;;;10.83;77.72;100084.03;124287;1099;104303;-78
2022/09/20 04:53:52;;;;;;;2.33;1.50;;;;;;;10.79;78.17;100085.66;126035;1099;104262;-79
2022/09/20 04:56:42;;;;;;;1.53;1.20;;;;;;;10.71;77.92;100078.44;124344;1099;104185;-78
2022/09/20 04:59:38;;;;;;;1.10;1.00;;;;;;;10.66;78.26;100080.92;124938;1102;104171;-80
2022/09/20 05:02:41;;;;;;;1.33;1.20;;;;;;;10.59;77.77;100074.59;124265;1099;104149;-77
2022/09/20 05:05:40;;;;;;;1.67;1.43;;;;;;;10.57;77.74;100086.78;124288;1102;104179;-77
2022/09/20 05:08:43;;;;;;;2.00;1.33;;;;;;;10.51;78.50;100085.73;124788;1099;101946;-78
2022/09/20 05:11:45;;;;;;;1.20;1.10;;;;;;;10.48;78.25;100083.89;124285;1099;102959;-77
2022/09/20 05:14:45;;;;;;;1.40;1.20;;;;;;;10.43;77.74;100090.75;124687;1099;104326;-75
2022/09/20 05:17:34;;;;;;;2.43;1.47;;;;;;;10.42;78.50;100084.63;124356;1099;104166;-76
2022/09/20 05:20:42;;;;;;;1.30;1.20;;;;;;;10.40;78.01;100086.28;125273;1098;104238;-78
2022/09/20 05:23:33;;;;;;;3.07;1.30;;;;;;;10.40;78.72;100075.80;124311;1099;104232;-76
2022/09/20 05:26:20;;;;;;;2.30;1.40;;;;;;;10.42;77.93;100071.51;124288;1099;104166;-75
2022/09/20 05:29:00;;;;;;;4.30;2.00;;;;;;;10.43;78.60;100067.14;124247;1099;104172;-77
2022/09/20 05:31:39;;;;;;;3.17;1.30;;;;;;;10.46;78.07;100071.59;124693;1099;104163;-75
2022/09/20 05:34:20;;;;;;;2.30;1.43;;;;;;;10.50;79.47;100076.98;124697;1098;104182;-75
2022/09/20 05:37:03;;;;;;;1.33;1.20;;;;;;;10.48;78.74;100076.02;124448;1099;104233;-77
2022/09/20 05:39:42;;;;;;;2.37;1.20;;;;;;;10.49;78.29;100075.19;124192;1099;104159;-76
2022/09/20 05:42:23;;;;;;;2.40;1.90;;;;;;;10.53;78.59;100073.53;124185;1100;103747;-75
2022/09/20 05:45:04;;;;;;;2.97;1.23;;;;;;;10.57;78.89;100078.91;124287;1099;104313;-76
2022/09/20 05:47:49;;;;;;;2.27;1.30;;;;;;;10.61;78.52;100082.50;124571;1099;104261;-75
2022/09/20 05:50:42;;;;;;;1.15;1.05;;;;;;;10.67;78.87;100084.43;124788;1099;104175;-75
2022/09/20 05:53:40;;;;;;;2.77;1.30;;;;;;;10.68;79.30;100079.22;124733;1098;104288;-76
2022/09/20 05:56:22;;;;;;;1.73;1.20;;;;;;;10.69;79.75;100082.73;124653;1099;104197;-75
2022/09/20 05:59:14;;;;;;;2.37;1.10;;;;;;;10.73;79.27;100085.48;124183;1099;102829;-76
2022/09/20 06:02:01;;;;;;;1.37;1.00;;;;;;;10.73;79.94;100074.98;124253;1099;102838;-77
2022/09/20 06:04:39;;;;;;;3.87;1.10;;;;;;;10.82;79.30;100079.61;124197;1102;104235;-75
2022/09/20 06:07:25;;;;;;;0.90;0.80;;;;;;;10.88;79.60;100084.16;124164;1102;104208;-74
2022/09/20 06:10:33;;;;;;;2.53;1.03;;;;;;;10.94;79.49;100082.58;124144;1099;104265;-74
2022/09/20 06:13:19;;;;;;;2.03;1.43;;;;;;;10.99;79.25;100081.83;124268;1099;104159;-74
2022/09/20 06:16:01;;;;;;;1.10;0.83;;;;;;;10.97;79.07;100092.29;124217;1099;102238;-75
2022/09/20 06:18:38;;;;;;;3.23;1.00;;;;;;;10.95;79.44;100092.25;124211;1099;104207;-76
2022/09/20 06:21:27;;;;;;;1.80;1.23;;;;;;;10.99;79.21;100089.70;124207;1102;103003;-76
2022/09/20 06:24:05;;;;;;;2.00;0.97;;;;;;;11.04;78.91;100102.09;124308;1099;104307;-76
2022/09/20 06:26:38;;;;;;;1.80;0.90;;;;;;;11.11;78.60;100095.27;124997;1099;102029;-77
2022/09/20 06:29:14;;;;;;;1.27;0.90;;;;;;;11.18;78.88;100098.96;124286;1099;104195;-76
2022/09/20 06:31:50;;;;;;;1.87;1.20;;;;;;;11.22;79.19;100100.80;125393;1099;104149;-77
2022/09/20 06:34:28;;;;;;;4.13;1.37;;;;;;;11.28;78.38;100093.09;124350;1099;104356;-77
2022/09/20 06:43:02;;;;;;;1.00;0.95;;;;;;;11.48;78.22;100120.79;125596;1098;102788;-76
2022/09/20 06:45:40;;;;;;;0.93;0.93;;;;;;;11.59;78.15;100128.05;124359;1102;102854;-77
2022/09/20 06:48:13;;;;;;;2.87;1.40;;;;;;;11.57;78.02;100130.62;125644;1098;102171;-76
2022/09/20 06:50:45;;;;;;;3.17;1.40;;;;;;;11.66;77.93;100132.61;124177;1102;102250;-76
2022/09/20 06:53:28;;;;;;;2.33;1.40;;;;;;;11.76;78.23;100134.61;124333;1099;104190;-77
2022/09/20 07:02:49;;;;;;;;;;;;;;;11.81;77.02;100140.89;125046;1099;119496;-78
2022/09/20 07:05:23;;;;;;;2.23;1.70;;;;;;;11.93;77.18;100142.06;124260;1099;104384;-76
2022/09/20 07:08:01;;;;;;;3.33;1.70;;;;;;;12.03;77.65;100149.34;124333;1099;104188;-77
2022/09/20 07:10:35;;;;;;;2.80;1.87;;;;;;;12.08;77.41;100149.45;124234;1100;102092;-77
2022/09/20 07:13:07;;;;;;;3.12;1.70;;;;;;;12.17;76.93;100145.29;124332;1102;104243;-78
2022/09/20 07:15:40;;;;;;;4.17;1.70;;;;;;;12.23;76.78;100145.44;125462;1099;102755;-79
2022/09/20 07:18:12;;;;;;;;;;;;;;;12.25;76.45;100152.45;124478;1098;104227;-78
2022/09/20 07:20:46;;;;;;;1.60;1.30;;;;;;;12.17;75.81;100152.27;125192;1099;104194;-78
2022/09/20 07:23:23;;;;;;;4.80;1.50;;;;;;;12.12;76.04;100152.16;124816;1099;104166;-78
2022/09/20 07:25:56;;;;;;;2.95;1.80;;;;;;;12.15;75.33;100156.61;124342;1102;104419;-77
2022/09/20 07:28:36;;;;;;;2.37;1.50;;;;;;;12.28;75.43;100152.52;124325;1097;102198;-80
2022/09/20 07:31:11;;;;;;;1.97;1.30;;;;;;;12.50;75.32;100149.54;124970;1102;104210;-78
2022/09/20 07:33:46;;;;;;;1.53;1.43;;;;;;;12.65;75.69;100161.25;124334;1099;102800;-78
2022/09/20 07:36:28;;;;;;;1.37;1.20;;;;;;;12.65;73.63;100163.88;124334;1100;104255;-78
2022/09/20 07:39:15;;;;;;;4.47;1.52;;;;;;;12.72;73.67;100160.54;125699;1099;104217;-77
2022/09/20 07:41:53;;;;;;;3.33;1.10;;;;;;;12.79;73.58;100156.28;124354;1102;102906;-77
2022/09/20 07:44:32;;;;;;;1.60;1.30;;;;;;;12.89;71.58;100168.80;124389;1099;104255;-77
2022/09/20 07:47:13;;;;;;;1.77;1.40;;;;;;;13.02;72.77;100176.08;125031;1099;102839;-79
2022/09/20 07:49:50;;;;;;;1.60;1.50;;;;;;;13.04;71.95;100169.12;125154;1102;101777;-78
2022/09/20 07:52:26;;;;;;;1.50;1.40;;;;;;;12.98;72.33;100171.63;124345;1099;104159;-79
2022/09/20 07:55:04;;;;;;;1.70;1.60;;;;;;;12.83;71.61;100182.72;125499;1099;118454;-76
2022/09/20 07:57:47;;;;;;;2.15;1.50;;;;;;;12.65;70.65;100175.29;124796;1099;104303;-76
2022/09/20 08:00:19;;;;;;;3.10;1.60;;;;;;;12.63;70.25;100171.74;124342;1099;104313;-75
2022/09/20 08:03:13;;;;;;;2.80;1.60;;;;;;;12.76;70.77;100175.52;124242;1099;104775;-75
2022/09/20 08:05:45;;;;;;;4.30;1.43;;;;;;;12.81;70.61;100186.16;124182;1102;104236;-74
2022/09/20 08:08:19;;;;;;;3.77;1.50;;;;;;;12.87;69.90;100187.20;124296;1099;104160;-75
2022/09/20 08:11:03;;;;;;;2.40;1.60;;;;;;;12.90;69.45;100187.27;124248;1099;104326;-76
2022/09/20 08:13:45;;;;;;;9.80;4.10;;;;;;;13.07;70.00;100184.98;124288;1099;102762;-76
2022/09/20 08:16:17;;;;;;;2.17;1.77;;;;;;;13.16;69.44;100186.90;125921;1098;102778;-76
2022/09/20 08:18:55;;;;;;;2.77;1.20;;;;;;;13.17;68.68;100179.91;124754;1099;104179;-75
2022/09/20 08:21:31;;;;;;;4.50;1.40;;;;;;;13.17;67.69;100203.62;124685;1099;103661;-75
2022/09/20 08:24:05;;;;;;;1.60;1.17;;;;;;;13.07;67.62;100182.35;124680;1099;103267;-74
2022/09/20 08:26:38;;;;;;;4.10;1.60;;;;;;;13.13;67.77;100192.10;124332;1099;104223;-75
2022/09/20 08:29:14;;;;;;;0.93;0.93;;;;;;;13.21;67.18;100193.14;124227;1099;104162;-76
2022/09/20 08:31:47;;;;;;;1.73;1.13;;;;;;;13.17;66.88;100186.05;124345;1099;102788;-78
2022/09/20 08:34:41;;;;;;;1.57;1.17;;;;;;;13.34;66.26;100174.97;125075;1099;104714;-76
2022/09/20 08:37:19;;;;;;;2.10;1.23;;;;;;;13.44;66.50;100180.45;125069;1099;102744;-76
2022/09/20 08:40:05;;;;;;;4.23;1.60;;;;;;;13.51;66.12;100181.48;125460;1099;101844;-77
2022/09/20 08:42:43;;;;;;;3.60;1.70;;;;;;;13.55;66.93;100178.02;125685;1099;104195;-78
2022/09/20 08:45:21;;;;;;;3.63;1.93;;;;;;;13.59;67.04;100179.86;124934;1102;104141;-77
2022/09/20 08:48:04;;;;;;;4.63;1.80;;;;;;;13.54;66.49;100180.63;124273;1099;104240;-76
2022/09/20 08:50:36;;;;;;;2.93;1.90;;;;;;;13.47;66.34;100183.14;124195;1102;104356;-76
2022/09/20 08:53:16;;;;;;;3.63;1.70;;;;;;;13.36;65.90;100181.18;124977;1099;104200;-76
2022/09/20 08:55:48;;;;;;;4.17;1.80;;;;;;;13.21;66.88;100179.97;124225;1099;104153;-76
2022/09/20 08:58:20;;;;;;;6.13;2.17;;;;;;;13.14;66.86;100178.09;124321;1099;102359;-74
2022/09/20 09:00:52;;;;;;;2.83;2.20;;;;;;;13.14;67.28;100185.99;124931;1099;104261;-75
2022/09/20 09:03:24;;;;;;;5.10;2.00;;;;;;;13.08;66.49;100176.20;124296;1099;104233;-75
2022/09/20 09:06:00;;;;;;;2.30;2.10;;;;;;;13.10;64.94;100189.41;124522;1098;102537;-76
2022/09/20 09:08:37;;;;;;;7.10;1.93;;;;;;;13.18;66.21;100169.36;124329;1099;102385;-73
2022/09/20 09:11:19;;;;;;;4.60;2.00;;;;;;;13.34;66.08;100162.70;125158;1099;103200;-74
2022/09/20 09:13:57;;;;;;;3.17;2.20;;;;;;;13.55;65.72;100151.66;124365;1099;103251;-75
2022/09/20 09:16:32;;;;;;;2.90;2.30;;;;;;;13.81;64.11;100159.15;124624;1099;102438;-75
2022/09/20 09:19:28;;;;;;;2.10;1.90;;;;;;;13.95;64.10;100148.83;124867;1098;104688;-73
2022/09/20 09:22:01;;;;;;;3.13;1.90;;;;;;;13.95;64.12;100139.16;124795;1099;104240;-74
2022/09/20 09:24:33;;;;;;;4.30;2.00;;;;;;;14.17;63.84;100136.86;126034;1098;104166;-74
2022/09/20 09:27:17;;;;;;;3.07;2.30;;;;;;;14.30;62.72;100130.88;124373;1099;102467;-74
2022/09/20 09:29:54;;;;;;;4.33;2.00;;;;;;;14.43;63.70;100144.26;124282;1099;104173;-74
2022/09/20 09:32:34;;;;;;;2.27;1.60;;;;;;;14.51;62.14;100148.80;124262;1099;102106;-75
2022/09/20 09:35:30;;;;;;;4.10;1.97;;;;;;;14.54;61.91;100143.55;124283;1099;104219;-76
2022/09/20 09:38:02;;;;;;;5.97;2.10;;;;;;;14.58;60.30;100144.47;124352;1099;103231;-75
2022/09/20 09:40:34;;;;;;;3.00;2.10;;;;;;;14.53;60.10;100135.61;124884;1099;102544;-76
2022/09/20 09:43:07;;;;;;;1.90;1.80;;;;;;;14.53;59.42;100146.17;124386;1099;103240;-74
2022/09/20 09:45:41;;;;;;;2.77;1.80;;;;;;;14.56;58.75;100133.02;124423;1099;102583;-75
2022/09/20 09:48:23;;;;;;;2.17;1.97;;;;;;;14.50;58.00;100141.72;124293;1099;104214;-75
2022/09/20 09:51:14;;;;;;;2.60;2.00;;;;;;;14.31;58.29;100150.27;124342;1099;102388;-74
2022/09/20 09:53:47;;;;;;;5.70;1.90;;;;;;;14.33;58.82;100156.44;124244;1102;104321;-75
2022/09/20 09:56:34;;;;;;;2.90;1.90;;;;;;;14.33;58.13;100146.76;124413;1099;104069;-75
2022/09/20 09:59:29;;;;;;;1.93;1.80;;;;;;;14.54;58.20;100135.63;124811;1098;104153;-75
2022/09/20 10:02:22;;;;;;;3.73;1.93;;;;;;;14.72;57.57;100131.48;124797;1099;102664;-74
2022/09/20 10:05:02;;;;;;;3.10;1.70;;;;;;;14.81;57.27;100131.61;124888;1099;104287;-77
2022/09/20 10:07:40;;;;;;;2.97;1.87;;;;;;;15.00;57.94;100135.36;124552;1099;104178;-76
2022/09/20 10:10:27;;;;;;;6.33;2.33;;;;;;;15.08;58.01;100133.71;124371;1099;104242;-75
2022/09/20 10:13:12;;;;;;;5.15;1.95;;;;;;;15.00;57.32;100138.00;124375;1099;104238;-75
2022/09/20 10:15:52;;;;;;;4.33;2.67;;;;;;;14.82;57.47;100136.03;124916;1099;104204;-76
2022/09/20 10:18:38;;;;;;;4.67;2.30;;;;;;;14.76;57.42;100151.80;124704;1099;104256;-75
2022/09/20 10:21:31;;;;;;;3.33;2.03;;;;;;;14.58;56.47;100159.44;124326;1099;102107;-75
2022/09/20 10:24:16;;;;;;;2.40;2.20;;;;;;;14.44;57.93;100152.20;124777;1099;104217;-74
2022/09/20 10:27:12;;;;;;;5.57;2.63;;;;;;;14.47;57.37;100148.73;124356;1099;102784;-74
2022/09/20 10:29:59;;;;;;;5.10;2.30;;;;;;;14.27;58.11;100151.07;124292;1099;102445;-73
2022/09/20 10:32:44;;;;;;;4.77;2.60;;;;;;;14.31;58.26;100156.42;124360;1099;102899;-75
2022/09/20 10:35:26;;;;;;;3.20;2.33;;;;;;;14.39;58.82;100152.13;124277;1102;104351;-74
2022/09/20 10:38:22;;;;;;;4.17;2.63;;;;;;;14.43;58.29;100157.45;124915;1099;104303;-74
2022/09/20 10:44:10;;;;;;;4.53;2.60;;;;;;;14.55;57.55;100144.43;124796;1099;102245;-73
2022/09/20 10:46:55;;;;;;;7.80;2.50;;;;;;;14.58;57.62;100154.16;124795;1099;104201;-73
2022/09/20 10:49:41;;;;;;;4.43;2.50;;;;;;;14.82;57.51;100158.90;124277;1099;118683;-74
2022/09/20 10:52:46;;;;;;;5.13;2.77;;;;;;;15.05;57.69;100151.27;124345;1099;104644;-75
2022/09/20 10:55:39;;;;;;;3.43;2.40;;;;;;;15.40;57.33;100141.09;124387;1099;104235;-75
2022/09/20 10:58:50;;;;;;;4.70;2.23;;;;;;;15.61;56.72;100134.23;124426;1099;105434;-76
2022/09/20 11:01:30;;;;;;;3.50;2.40;;;;;;;15.66;54.93;100145.77;124793;1099;104217;-74
2022/09/20 11:04:24;;;;;;;4.07;2.20;;;;;;;15.58;54.67;100131.55;124648;1099;104179;-75
2022/09/20 11:07:19;;;;;;;4.07;2.10;;;;;;;15.66;54.81;100140.47;124285;1099;104153;-74
2022/09/20 11:10:03;;;;;;;3.02;1.85;;;;;;;15.85;54.50;100135.34;124225;1099;104238;-75
2022/09/20 11:12:41;;;;;;;5.03;2.20;;;;;;;16.10;54.12;100132.03;124253;1099;104944;-73
2022/09/20 11:15:22;;;;;;;5.33;1.97;;;;;;;16.15;55.47;100143.53;124210;1099;104232;-73
2022/09/20 11:18:09;;;;;;;5.93;1.90;;;;;;;16.10;52.90;100141.74;124215;1100;102956;-75
2022/09/20 11:20:46;;;;;;;2.07;1.87;;;;;;;16.02;52.78;100124.90;124314;1099;108131;-74
2022/09/20 11:23:23;;;;;;;6.63;2.30;;;;;;;16.12;54.06;100138.20;124356;1099;104252;-75
2022/09/20 11:26:00;;;;;;;4.70;2.20;;;;;;;16.20;54.60;100140.04;124374;1099;104198;-75
2022/09/20 11:28:50;;;;;;;4.80;1.90;;;;;;;16.32;53.87;100138.35;124275;1099;101879;-74
2022/09/20 11:31:26;;;;;;;4.97;2.30;;;;;;;16.39;54.07;100146.33;125633;1098;102736;-73
2022/09/20 11:34:08;;;;;;;6.50;2.20;;;;;;;16.29;54.28;100148.92;124232;1099;102918;-75
2022/09/20 11:36:43;;;;;;;4.63;2.20;;;;;;;16.14;53.86;100141.78;124263;1097;104178;-75
2022/09/20 11:39:21;;;;;;;2.63;2.10;;;;;;;15.96;52.72;100146.92;124357;1099;104157;-75
2022/09/20 11:41:55;;;;;;;4.90;2.30;;;;;;;15.70;52.27;100158.12;125154;1099;102212;-75
2022/09/20 11:44:25;;;;;;;;;;;;;;;15.54;51.49;100162.38;124705;1098;104252;-73
2022/09/20 11:47:07;;;;;;;6.13;2.33;;;;;;;15.54;52.88;100158.86;124689;1098;102564;-77
2022/09/20 11:49:49;;;;;;;4.03;1.90;;;;;;;15.51;52.80;100153.54;124548;1099;102435;-75
2022/09/20 11:52:37;;;;;;;4.87;2.30;;;;;;;15.44;51.97;100160.50;124197;1099;104560;-75
2022/09/20 11:55:27;;;;;;;3.37;2.17;;;;;;;15.41;52.76;100156.09;125414;1099;104252;-76
2022/09/20 11:58:10;;;;;;;5.73;2.30;;;;;;;15.37;52.81;100148.11;124473;1099;104252;-74
2022/09/20 12:00:46;;;;;;;2.93;2.10;;;;;;;15.27;51.94;100157.70;124623;1099;102819;-75
2022/09/20 12:03:36;;;;;;;2.87;2.23;;;;;;;15.19;51.66;100157.62;124726;1099;104259;-75
2022/09/20 12:06:32;;;;;;;4.93;3.07;;;;;;;15.13;52.95;100154.91;124395;1099;104195;-76
2022/09/20 12:09:12;;;;;;;6.30;2.52;;;;;;;15.13;53.11;100156.64;124787;1098;104201;-75
2022/09/20 12:11:52;;;;;;;4.07;2.50;;;;;;;15.15;52.90;100157.56;124308;1102;119859;-77
2022/09/20 12:17:42;;;;;;;6.30;2.70;;;;;;;15.19;52.42;100156.71;124304;1099;101869;-76
2022/09/20 12:20:53;;;;;;;4.87;2.50;;;;;;;15.12;51.92;100154.89;124339;1099;104325;-75
2022/09/20 12:24:00;;;;;;;3.00;2.50;;;;;;;15.05;52.32;100160.09;124314;1099;102242;-74
2022/09/20 12:26:43;;;;;;;5.47;2.77;;;;;;;15.09;53.03;100169.81;124779;1098;102307;-74
2022/09/20 12:29:57;;;;;;;4.57;2.47;;;;;;;15.15;52.75;100162.84;124278;1099;104185;-75
2022/09/20 12:32:53;;;;;;;3.70;2.67;;;;;;;15.20;52.84;100163.78;124212;1102;104240;-77
2022/09/20 12:36:01;;;;;;;4.40;2.60;;;;;;;15.23;52.76;100161.17;124253;1102;104303;-76
2022/09/20 12:38:45;;;;;;;3.80;2.33;;;;;;;15.19;52.51;100170.83;124220;1099;102762;-76
2022/09/20 12:41:21;;;;;;;4.37;2.52;;;;;;;15.08;52.41;100168.06;124215;1099;104239;-75
2022/09/20 12:44:01;;;;;;;5.63;2.67;;;;;;;15.03;51.87;100161.81;124337;1099;104239;-75
2022/09/20 12:46:37;;;;;;;6.70;2.70;;;;;;;15.01;52.96;100160.92;124292;1099;104233;-75